sensor_id;sensor_type;location;lat;lon;timestamp;pressure;altitude;pressure_sealevel;temperature;humidity
1776;BME280;885;42.626;23.200;2023-04-29T00:00:05;70618.47;;;-143.00;100.00
1776;BME280;885;42.626;23.200;2023-04-29T00:02:32;70618.47;;;-143.00;100.00
1776;BME280;885;42.626;23.200;2023-04-29T00:05:00;70618.47;;;-143.00;100.00
1776;BME280;885;42.626;23.200;2023-04-29T00:07:29;70618.47;;;-143.00;100.00
1776;BME280;885;42.626;23.200;2023-04-29T00:09:56;70618.47;;;-143.00;100.00
1776;BME280;885;42.626;23.200;2023-04-29T00:12:23;70618.47;;;-143.00;100.00
1776;BME280;885;42.626;23.200;2023-04-29T00:14:50;70618.47;;;-143.00;100.00
1776;BME280;885;42.626;23.200;2023-04-29T00:17:17;70618.47;;;-143.00;100.00
1776;BME280;885;42.626;23.200;2023-04-29T00:19:44;70618.47;;;-143.00;100.00
1776;BME280;885;42.626;23.200;2023-04-29T00:22:12;70618.47;;;-143.00;100.00
1776;BME280;885;42.626;23.200;2023-04-29T00:24:38;70618.47;;;-143.00;100.00
1776;BME280;885;42.626;23.200;2023-04-29T00:27:05;70618.47;;;-143.00;100.00
1776;BME280;885;42.626;23.200;2023-04-29T00:29:32;70618.47;;;-143.00;100.00
1776;BME280;885;42.626;23.200;2023-04-29T00:31:58;70618.47;;;-143.00;100.00
1776;BME280;885;42.626;23.200;2023-04-29T00:34:25;70618.47;;;-143.00;100.00
1776;BME280;885;42.626;23.200;2023-04-29T00:36:52;70618.47;;;-143.00;100.00
1776;BME280;885;42.626;23.200;2023-04-29T00:39:20;70618.47;;;-143.00;100.00
1776;BME280;885;42.626;23.200;2023-04-29T00:41:47;70618.47;;;-143.00;100.00
1776;BME280;885;42.626;23.200;2023-04-29T00:44:14;70618.47;;;-143.00;100.00
1776;BME280;885;42.626;23.200;2023-04-29T00:46:41;70618.47;;;-143.00;100.00
1776;BME280;885;42.626;23.200;2023-04-29T00:49:08;70618.47;;;-143.00;100.00
1776;BME280;885;42.626;23.200;2023-04-29T00:51:37;70618.47;;;-143.00;100.00
1776;BME280;885;42.626;23.200;2023-04-29T00:54:06;70618.47;;;-143.00;100.00
1776;BME280;885;42.626;23.200;2023-04-29T00:56:34;70618.47;;;-143.00;100.00
1776;BME280;885;42.626;23.200;2023-04-29T00:59:03;70618.47;;;-143.00;100.00
1776;BME280;885;42.626;23.200;2023-04-29T01:01:30;70618.47;;;-143.00;100.00
1776;BME280;885;42.626;23.200;2023-04-29T01:03:57;70618.47;;;-143.00;100.00
1776;BME280;885;42.626;23.200;2023-04-29T01:06:28;70618.47;;;-143.00;100.00
1776;BME280;885;42.626;23.200;2023-04-29T01:09:09;70618.47;;;-143.00;100.00
1776;BME280;885;42.626;23.200;2023-04-29T01:11:48;70618.47;;;-143.00;100.00
1776;BME280;885;42.626;23.200;2023-04-29T01:14:19;70618.47;;;-143.00;100.00
1776;BME280;885;42.626;23.200;2023-04-29T01:16:50;70618.47;;;-143.00;100.00
1776;BME280;885;42.626;23.200;2023-04-29T01:19:30;70618.47;;;-143.00;100.00
1776;BME280;885;42.626;23.200;2023-04-29T01:22:04;70618.47;;;-143.00;100.00
1776;BME280;885;42.626;23.200;2023-04-29T01:24:32;70618.47;;;-143.00;100.00
1776;BME280;885;42.626;23.200;2023-04-29T01:27:07;70618.47;;;-143.00;100.00
1776;BME280;885;42.626;23.200;2023-04-29T01:29:42;70618.47;;;-143.00;100.00
1776;BME280;885;42.626;23.200;2023-04-29T01:32:13;70618.47;;;-143.00;100.00
1776;BME280;885;42.626;23.200;2023-04-29T01:34:47;70618.47;;;-143.00;100.00
1776;BME280;885;42.626;23.200;2023-04-29T01:40:08;70618.47;;;-143.00;100.00
1776;BME280;885;42.626;23.200;2023-04-29T01:42:39;70618.47;;;-143.00;100.00
1776;BME280;885;42.626;23.200;2023-04-29T01:45:10;70618.47;;;-143.00;100.00
1776;BME280;885;42.626;23.200;2023-04-29T01:47:38;70618.47;;;-143.00;100.00
1776;BME280;885;42.626;23.200;2023-04-29T01:50:06;70618.47;;;-143.00;100.00
1776;BME280;885;42.626;23.200;2023-04-29T01:52:32;70618.47;;;-143.00;100.00
1776;BME280;885;42.626;23.200;2023-04-29T01:54:59;70618.47;;;-143.00;100.00
1776;BME280;885;42.626;23.200;2023-04-29T01:57:27;70618.47;;;-143.00;100.00
1776;BME280;885;42.626;23.200;2023-04-29T01:59:54;70618.47;;;-143.00;100.00
1776;BME280;885;42.626;23.200;2023-04-29T02:02:21;70618.47;;;-143.00;100.00
1776;BME280;885;42.626;23.200;2023-04-29T02:04:49;70618.47;;;-143.00;100.00
1776;BME280;885;42.626;23.200;2023-04-29T02:07:16;70618.47;;;-143.00;100.00
1776;BME280;885;42.626;23.200;2023-04-29T02:09:43;70618.47;;;-143.00;100.00
1776;BME280;885;42.626;23.200;2023-04-29T02:12:10;70618.47;;;-143.00;100.00
1776;BME280;885;42.626;23.200;2023-04-29T02:14:38;70618.47;;;-143.00;100.00
1776;BME280;885;42.626;23.200;2023-04-29T02:17:05;70618.47;;;-143.00;100.00
1776;BME280;885;42.626;23.200;2023-04-29T02:19:31;70618.47;;;-143.00;100.00
1776;BME280;885;42.626;23.200;2023-04-29T02:21:58;70618.47;;;-143.00;100.00
1776;BME280;885;42.626;23.200;2023-04-29T02:24:25;70618.47;;;-143.00;100.00
1776;BME280;885;42.626;23.200;2023-04-29T02:26:52;70618.47;;;-143.00;100.00
1776;BME280;885;42.626;23.200;2023-04-29T02:29:19;70618.47;;;-143.00;100.00
1776;BME280;885;42.626;23.200;2023-04-29T02:31:47;70618.47;;;-143.00;100.00
1776;BME280;885;42.626;23.200;2023-04-29T02:34:14;70618.47;;;-143.00;100.00
1776;BME280;885;42.626;23.200;2023-04-29T02:36:40;70618.47;;;-143.00;100.00
1776;BME280;885;42.626;23.200;2023-04-29T02:39:07;70618.47;;;-143.00;100.00
1776;BME280;885;42.626;23.200;2023-04-29T02:41:34;70618.47;;;-143.00;100.00
1776;BME280;885;42.626;23.200;2023-04-29T02:44:01;70618.47;;;-143.00;100.00
1776;BME280;885;42.626;23.200;2023-04-29T02:46:28;70618.47;;;-143.00;100.00
1776;BME280;885;42.626;23.200;2023-04-29T02:48:58;70618.47;;;-143.00;100.00
1776;BME280;885;42.626;23.200;2023-04-29T02:51:25;70618.47;;;-143.00;100.00
1776;BME280;885;42.626;23.200;2023-04-29T02:53:52;70618.47;;;-143.00;100.00
1776;BME280;885;42.626;23.200;2023-04-29T02:56:19;70618.47;;;-143.00;100.00
1776;BME280;885;42.626;23.200;2023-04-29T02:58:45;70618.47;;;-143.00;100.00
1776;BME280;885;42.626;23.200;2023-04-29T03:01:12;70618.47;;;-143.00;100.00
1776;BME280;885;42.626;23.200;2023-04-29T03:03:39;70618.47;;;-143.00;100.00
1776;BME280;885;42.626;23.200;2023-04-29T03:06:07;70618.47;;;-143.00;100.00
1776;BME280;885;42.626;23.200;2023-04-29T03:08:34;70618.47;;;-143.00;100.00
1776;BME280;885;42.626;23.200;2023-04-29T03:11:01;70618.47;;;-143.00;100.00
1776;BME280;885;42.626;23.200;2023-04-29T03:13:28;70618.47;;;-143.00;100.00
1776;BME280;885;42.626;23.200;2023-04-29T03:15:54;70618.47;;;-143.00;100.00
1776;BME280;885;42.626;23.200;2023-04-29T03:18:23;70618.47;;;-143.00;100.00
1776;BME280;885;42.626;23.200;2023-04-29T03:20:49;70618.47;;;-143.00;100.00
1776;BME280;885;42.626;23.200;2023-04-29T03:23:17;70618.47;;;-143.00;100.00
1776;BME280;885;42.626;23.200;2023-04-29T03:25:46;70618.47;;;-143.00;100.00
1776;BME280;885;42.626;23.200;2023-04-29T03:28:12;70618.47;;;-143.00;100.00
1776;BME280;885;42.626;23.200;2023-04-29T03:30:39;70618.47;;;-143.00;100.00
1776;BME280;885;42.626;23.200;2023-04-29T03:33:06;70618.47;;;-143.00;100.00
1776;BME280;885;42.626;23.200;2023-04-29T03:35:33;70618.47;;;-143.00;100.00
1776;BME280;885;42.626;23.200;2023-04-29T03:38:00;70618.47;;;-143.00;100.00
1776;BME280;885;42.626;23.200;2023-04-29T03:40:28;70618.47;;;-143.00;100.00
1776;BME280;885;42.626;23.200;2023-04-29T03:42:55;70618.47;;;-143.00;100.00
1776;BME280;885;42.626;23.200;2023-04-29T03:45:22;70618.47;;;-143.00;100.00
1776;BME280;885;42.626;23.200;2023-04-29T03:47:50;70618.47;;;-143.00;100.00
1776;BME280;885;42.626;23.200;2023-04-29T03:50:17;70618.47;;;-143.00;100.00
1776;BME280;885;42.626;23.200;2023-04-29T03:52:44;70618.47;;;-143.00;100.00
1776;BME280;885;42.626;23.200;2023-04-29T03:55:11;70618.47;;;-143.00;100.00
1776;BME280;885;42.626;23.200;2023-04-29T03:57:39;70618.47;;;-143.00;100.00
1776;BME280;885;42.626;23.200;2023-04-29T04:00:07;70618.47;;;-143.00;100.00
1776;BME280;885;42.626;23.200;2023-04-29T04:02:34;70618.47;;;-143.00;100.00
1776;BME280;885;42.626;23.200;2023-04-29T04:05:01;70618.47;;;-143.00;100.00
1776;BME280;885;42.626;23.200;2023-04-29T04:07:27;70618.47;;;-143.00;100.00
1776;BME280;885;42.626;23.200;2023-04-29T04:09:54;70618.47;;;-143.00;100.00
1776;BME280;885;42.626;23.200;2023-04-29T04:12:21;70618.47;;;-143.00;100.00
1776;BME280;885;42.626;23.200;2023-04-29T04:14:49;70618.47;;;-143.00;100.00
1776;BME280;885;42.626;23.200;2023-04-29T04:17:16;70618.47;;;-143.00;100.00
1776;BME280;885;42.626;23.200;2023-04-29T04:19:42;70618.47;;;-143.00;100.00
1776;BME280;885;42.626;23.200;2023-04-29T04:22:09;70618.47;;;-143.00;100.00
1776;BME280;885;42.626;23.200;2023-04-29T04:24:36;70618.47;;;-143.00;100.00
1776;BME280;885;42.626;23.200;2023-04-29T04:27:03;70618.47;;;-143.00;100.00
1776;BME280;885;42.626;23.200;2023-04-29T04:29:29;70618.47;;;-143.00;100.00
1776;BME280;885;42.626;23.200;2023-04-29T04:31:57;70618.47;;;-143.00;100.00
1776;BME280;885;42.626;23.200;2023-04-29T04:34:24;70618.47;;;-143.00;100.00
1776;BME280;885;42.626;23.200;2023-04-29T04:36:51;70618.47;;;-143.00;100.00
1776;BME280;885;42.626;23.200;2023-04-29T04:39:18;70618.47;;;-143.00;100.00
1776;BME280;885;42.626;23.200;2023-04-29T04:41:45;70618.47;;;-143.00;100.00
1776;BME280;885;42.626;23.200;2023-04-29T04:55:17;135311.91;;;6.41;86.26
1776;BME280;885;42.626;23.200;2023-04-29T04:57:43;137180.28;;;6.59;87.35
1776;BME280;885;42.626;23.200;2023-04-29T05:00:11;138672.94;;;6.72;87.77
1776;BME280;885;42.626;23.200;2023-04-29T05:02:38;140166.72;;;6.84;89.05
1776;BME280;885;42.626;23.200;2023-04-29T05:05:05;141661.69;;;6.97;88.76
1776;BME280;885;42.626;23.200;2023-04-29T05:07:32;140238.97;;;7.16;87.30
1776;BME280;885;42.626;23.200;2023-04-29T05:10:00;139182.44;;;7.35;86.10
1776;BME280;885;42.626;23.200;2023-04-29T05:12:28;138088.25;;;7.38;84.34
1776;BME280;885;42.626;23.200;2023-04-29T05:14:56;136994.31;;;7.40;84.62
1776;BME280;885;42.626;23.200;2023-04-29T05:17:23;136259.19;;;7.39;83.47
1776;BME280;885;42.626;23.200;2023-04-29T05:19:53;133659.13;;;7.22;82.33
1776;BME280;885;42.626;23.200;2023-04-29T05:22:19;132915.06;;;7.17;81.92
1776;BME280;885;42.626;23.200;2023-04-29T05:24:46;130007.34;;;7.26;78.78
1776;BME280;885;42.626;23.200;2023-04-29T05:27:13;128584.28;;;7.45;77.75
1776;BME280;885;42.626;23.200;2023-04-29T05:29:41;129366.44;;;7.69;77.39
1776;BME280;885;42.626;23.200;2023-04-29T05:32:11;132344.94;;;7.92;80.48
1776;BME280;885;42.626;23.200;2023-04-29T05:34:38;131255.56;;;7.97;77.47
1776;BME280;885;42.626;23.200;2023-04-29T05:37:05;128691.09;;;7.96;75.84
1776;BME280;885;42.626;23.200;2023-04-29T05:39:31;126830.13;;;7.81;75.21
1776;BME280;885;42.626;23.200;2023-04-29T05:41:58;126476.72;;;7.87;74.49
1776;BME280;885;42.626;23.200;2023-04-29T05:44:26;125766.56;;;7.98;73.65
1776;BME280;885;42.626;23.200;2023-04-29T05:46:54;126528.16;;;8.13;73.69
1776;BME280;885;42.626;23.200;2023-04-29T05:49:21;125095.00;;;8.28;71.08
1776;BME280;885;42.626;23.200;2023-04-29T05:51:48;125149.91;;;8.55;70.26
1776;BME280;885;42.626;23.200;2023-04-29T05:54:14;124830.47;;;8.78;69.56
1776;BME280;885;42.626;23.200;2023-04-29T05:56:41;124879.19;;;9.02;67.15
1776;BME280;885;42.626;23.200;2023-04-29T05:59:08;124209.00;;;9.33;66.14
1776;BME280;885;42.626;23.200;2023-04-29T06:01:35;122404.72;;;9.47;62.74
1776;BME280;885;42.626;23.200;2023-04-29T06:04:04;121721.28;;;9.73;61.34
1776;BME280;885;42.626;23.200;2023-04-29T06:06:30;123261.56;;;10.10;62.91
1776;BME280;885;42.626;23.200;2023-04-29T06:08:59;120752.00;;;10.39;58.02
1776;BME280;885;42.626;23.200;2023-04-29T06:11:26;117476.63;;;10.53;54.31
1776;BME280;885;42.626;23.200;2023-04-29T06:13:53;118660.13;;;10.96;55.04
1776;BME280;885;42.626;23.200;2023-04-29T06:16:20;116139.00;;;11.22;49.83
1776;BME280;885;42.626;23.200;2023-04-29T06:18:47;118452.13;;;11.80;51.51
1776;BME280;885;42.626;23.200;2023-04-29T06:21:15;118195.44;;;12.38;48.67
1776;BME280;885;42.626;23.200;2023-04-29T06:23:41;116362.56;;;12.41;48.42
1776;BME280;885;42.626;23.200;2023-04-29T06:26:08;118626.47;;;12.71;49.54
1776;BME280;885;42.626;23.200;2023-04-29T06:28:35;116799.97;;;12.78;48.56
1776;BME280;885;42.626;23.200;2023-04-29T06:31:02;116839.59;;;13.00;47.49
1776;BME280;885;42.626;23.200;2023-04-29T06:33:31;118015.31;;;13.37;47.24
1776;BME280;885;42.626;23.200;2023-04-29T06:35:59;121455.50;;;14.01;47.94
1776;BME280;885;42.626;23.200;2023-04-29T06:38:27;121103.09;;;14.09;47.84
1776;BME280;885;42.626;23.200;2023-04-29T06:40:53;117351.50;;;13.76;46.52
1776;BME280;885;42.626;23.200;2023-04-29T06:43:22;116573.16;;;13.54;47.86
1776;BME280;885;42.626;23.200;2023-04-29T06:45:48;116223.56;;;13.64;47.35
1776;BME280;885;42.626;23.200;2023-04-29T06:48:16;119246.56;;;14.03;49.09
1776;BME280;885;42.626;23.200;2023-04-29T06:50:48;120440.84;;;14.49;47.04
1776;BME280;885;42.626;23.200;2023-04-29T06:53:15;121591.91;;;14.71;47.71
1776;BME280;885;42.626;23.200;2023-04-29T06:55:43;123123.78;;;14.98;47.97
1776;BME280;885;42.626;23.200;2023-04-29T06:58:10;124661.56;;;15.27;47.80
1776;BME280;885;42.626;23.200;2023-04-29T07:00:37;124292.50;;;15.28;48.60
1776;BME280;885;42.626;23.200;2023-04-29T07:03:04;123543.44;;;15.23;47.30
1776;BME280;885;42.626;23.200;2023-04-29T07:05:31;121633.13;;;14.92;47.94
1776;BME280;885;42.626;23.200;2023-04-29T07:07:58;116310.78;;;14.11;47.55
1776;BME280;885;42.626;23.200;2023-04-29T07:10:25;104743.09;;;12.15;52.34
1776;BME280;885;42.626;23.200;2023-04-29T07:12:54;107344.03;;;12.27;54.67
1776;BME280;885;42.626;23.200;2023-04-29T07:15:21;111655.31;;;12.80;54.64
1776;BME280;885;42.626;23.200;2023-04-29T07:17:47;113919.41;;;13.12;53.90
1776;BME280;885;42.626;23.200;2023-04-29T07:20:14;114711.53;;;13.43;52.26
1776;BME280;885;42.626;23.200;2023-04-29T07:22:41;115110.28;;;13.60;51.47
1776;BME280;885;42.626;23.200;2023-04-29T07:25:08;117376.13;;;13.89;52.07
1776;BME280;885;42.626;23.200;2023-04-29T07:27:36;117387.50;;;13.95;51.59
1776;BME280;885;42.626;23.200;2023-04-29T07:30:06;115880.47;;;13.78;51.37
1776;BME280;885;42.626;23.200;2023-04-29T07:32:33;117384.66;;;13.94;52.25
1776;BME280;885;42.626;23.200;2023-04-29T07:35:00;117422.53;;;14.14;50.01
1776;BME280;885;42.626;23.200;2023-04-29T07:37:27;117457.63;;;14.32;49.46
1776;BME280;885;42.626;23.200;2023-04-29T07:39:53;117864.53;;;14.53;48.32
1776;BME280;885;42.626;23.200;2023-04-29T07:42:20;119389.09;;;14.78;48.27
1776;BME280;885;42.626;23.200;2023-04-29T07:44:47;120562.38;;;15.11;48.48
1776;BME280;885;42.626;23.200;2023-04-29T07:47:15;122849.22;;;15.46;48.33
1776;BME280;885;42.626;23.200;2023-04-29T07:49:41;115668.59;;;14.62;45.65
1776;BME280;885;42.626;23.200;2023-04-29T07:52:08;118289.84;;;14.82;47.79
1776;BME280;885;42.626;23.200;2023-04-29T07:54:35;119839.59;;;15.20;47.69
1776;BME280;885;42.626;23.200;2023-04-29T07:57:02;122124.94;;;15.54;48.01
1776;BME280;885;42.626;23.200;2023-04-29T07:59:30;120264.53;;;15.49;45.39
1776;BME280;885;42.626;23.200;2023-04-29T08:01:56;113472.25;;;14.71;43.67
1776;BME280;885;42.626;23.200;2023-04-29T08:04:25;115739.41;;;15.00;44.66
1776;BME280;885;42.626;23.200;2023-04-29T08:06:51;118411.97;;;15.47;44.35
1776;BME280;885;42.626;23.200;2023-04-29T08:09:18;115848.53;;;15.59;41.14
1776;BME280;885;42.626;23.200;2023-04-29T08:11:45;115880.25;;;15.76;41.60
1776;BME280;885;42.626;23.200;2023-04-29T08:14:12;115919.44;;;15.98;42.12
1776;BME280;885;42.626;23.200;2023-04-29T08:16:38;116313.50;;;16.11;41.35
1776;BME280;885;42.626;23.200;2023-04-29T08:19:05;115572.00;;;16.10;41.93
1776;BME280;885;42.626;23.200;2023-04-29T08:21:33;115981.94;;;16.31;41.15
1776;BME280;885;42.626;23.200;2023-04-29T08:24:00;111484.47;;;16.02;39.34
1776;BME280;885;42.626;23.200;2023-04-29T08:26:27;111322.19;;;16.00;39.94
1776;BME280;885;42.626;23.200;2023-04-29T08:28:54;111466.94;;;16.04;39.92
1776;BME280;885;42.626;23.200;2023-04-29T08:31:21;113743.69;;;16.21;40.77
1776;BME280;885;42.626;23.200;2023-04-29T08:33:48;112132.13;;;16.08;41.24
1776;BME280;885;42.626;23.200;2023-04-29T08:36:15;108393.59;;;15.89;38.20
1776;BME280;885;42.626;23.200;2023-04-29T08:38:43;105913.03;;;15.81;36.89
1776;BME280;885;42.626;23.200;2023-04-29T08:41:10;106445.16;;;15.95;38.91
1776;BME280;885;42.626;23.200;2023-04-29T08:43:39;107326.72;;;15.96;39.45
1776;BME280;885;42.626;23.200;2023-04-29T08:46:06;109288.84;;;15.92;42.29
1776;BME280;885;42.626;23.200;2023-04-29T08:48:35;112924.13;;;16.07;44.64
1776;BME280;885;42.626;23.200;2023-04-29T08:51:04;111635.75;;;16.22;41.96
1776;BME280;885;42.626;23.200;2023-04-29T08:53:31;113783.91;;;16.43;41.59
1776;BME280;885;42.626;23.200;2023-04-29T08:56:03;113045.28;;;16.43;42.69
1776;BME280;885;42.626;23.200;2023-04-29T08:58:35;115306.09;;;16.66;42.70
1776;BME280;885;42.626;23.200;2023-04-29T09:01:07;114238.22;;;16.89;40.28
1776;BME280;885;42.626;23.200;2023-04-29T09:03:39;115756.19;;;17.09;41.52
1776;BME280;885;42.626;23.200;2023-04-29T09:06:10;116557.94;;;17.42;39.63
1776;BME280;885;42.626;23.200;2023-04-29T09:08:37;115467.47;;;17.54;39.25
1776;BME280;885;42.626;23.200;2023-04-29T09:11:07;115118.13;;;17.65;38.59
1776;BME280;885;42.626;23.200;2023-04-29T09:13:34;114382.38;;;17.68;37.93
1776;BME280;885;42.626;23.200;2023-04-29T09:16:01;113651.28;;;17.74;36.69
1776;BME280;885;42.626;23.200;2023-04-29T09:18:41;113989.25;;;17.72;38.10
1776;BME280;885;42.626;23.200;2023-04-29T09:21:18;112784.59;;;17.75;36.75
1776;BME280;885;42.626;23.200;2023-04-29T09:23:47;113660.38;;;17.79;38.89
1776;BME280;885;42.626;23.200;2023-04-29T09:26:15;114005.38;;;17.65;40.11
1776;BME280;885;42.626;23.200;2023-04-29T09:28:42;111417.41;;;17.63;37.50
1776;BME280;885;42.626;23.200;2023-04-29T09:31:10;111046.44;;;17.74;37.20
1776;BME280;885;42.626;23.200;2023-04-29T09:33:51;112380.44;;;17.82;38.15
1776;BME280;885;42.626;23.200;2023-04-29T09:36:41;111332.72;;;17.82;37.72
1776;BME280;885;42.626;23.200;2023-04-29T09:39:11;110202.66;;;17.50;38.98
1776;BME280;885;42.626;23.200;2023-04-29T09:41:42;109446.91;;;17.39;39.47
1776;BME280;885;42.626;23.200;2023-04-29T09:44:23;107502.91;;;17.11;38.63
1776;BME280;885;42.626;23.200;2023-04-29T09:46:57;102810.91;;;16.69;36.12
1776;BME280;885;42.626;23.200;2023-04-29T09:49:24;100461.31;;;16.20;37.80
1776;BME280;885;42.626;23.200;2023-04-29T09:51:52;101393.22;;;16.39;38.47
1776;BME280;885;42.626;23.200;2023-04-29T09:54:20;101204.56;;;16.47;37.85
1776;BME280;885;42.626;23.200;2023-04-29T09:56:49;101880.31;;;16.71;37.68
1776;BME280;885;42.626;23.200;2023-04-29T09:59:16;99608.78;;;16.30;36.40
1776;BME280;885;42.626;23.200;2023-04-29T10:01:45;98950.13;;;16.03;38.81
1776;BME280;885;42.626;23.200;2023-04-29T10:04:15;98450.06;;;15.96;38.50
1776;BME280;885;42.626;23.200;2023-04-29T10:06:47;101197.84;;;16.21;40.43
1776;BME280;885;42.626;23.200;2023-04-29T10:09:15;100497.72;;;16.35;39.12
1776;BME280;885;42.626;23.200;2023-04-29T10:11:43;98722.63;;;16.07;38.60
1776;BME280;885;42.626;23.200;2023-04-29T10:14:14;99831.13;;;16.07;41.01
1776;BME280;885;42.626;23.200;2023-04-29T10:16:45;102210.50;;;16.35;40.99
1776;BME280;885;42.626;23.200;2023-04-29T10:19:15;101515.19;;;16.13;42.00
1776;BME280;885;42.626;23.200;2023-04-29T10:21:47;105603.47;;;16.42;44.56
1776;BME280;885;42.626;23.200;2023-04-29T10:24:16;106925.91;;;16.67;44.15
1776;BME280;885;42.626;23.200;2023-04-29T10:26:43;107870.03;;;16.89;43.60
1776;BME280;885;42.626;23.200;2023-04-29T10:29:12;108923.63;;;17.07;44.39
1776;BME280;885;42.626;23.200;2023-04-29T10:31:40;110178.19;;;17.27;42.75
1776;BME280;885;42.626;23.200;2023-04-29T10:34:10;111526.56;;;17.33;45.01
1776;BME280;885;42.626;23.200;2023-04-29T10:36:38;110402.44;;;17.41;43.11
1776;BME280;885;42.626;23.200;2023-04-29T10:39:10;111263.81;;;17.58;42.23
1776;BME280;885;42.626;23.200;2023-04-29T10:41:42;109983.22;;;17.41;41.56
1776;BME280;885;42.626;23.200;2023-04-29T10:44:12;110386.63;;;17.44;42.98
1776;BME280;885;42.626;23.200;2023-04-29T10:46:39;111375.25;;;17.54;43.67
1776;BME280;885;42.626;23.200;2023-04-29T10:49:06;111466.97;;;17.53;42.50
1776;BME280;885;42.626;23.200;2023-04-29T10:51:34;111229.69;;;17.46;43.22
1776;BME280;885;42.626;23.200;2023-04-29T10:54:07;109810.75;;;17.35;43.30
1776;BME280;885;42.626;23.200;2023-04-29T10:56:39;110321.47;;;17.41;43.24
1776;BME280;885;42.626;23.200;2023-04-29T10:59:09;111461.50;;;17.43;44.38
1776;BME280;885;42.626;23.200;2023-04-29T11:01:46;112113.00;;;17.45;44.77
1776;BME280;885;42.626;23.200;2023-04-29T11:04:14;112302.63;;;17.48;45.26
1776;BME280;885;42.626;23.200;2023-04-29T11:06:43;112821.13;;;17.60;44.10
1776;BME280;885;42.626;23.200;2023-04-29T11:09:12;112387.75;;;17.62;44.40
1776;BME280;885;42.626;23.200;2023-04-29T11:14:33;99986.50;;;15.62;44.55
1776;BME280;885;42.626;23.200;2023-04-29T11:17:04;101798.97;;;15.87;44.65
1776;BME280;885;42.626;23.200;2023-04-29T11:19:32;105042.69;;;16.24;46.85
1776;BME280;885;42.626;23.200;2023-04-29T11:22:13;107431.88;;;16.52;48.55
1776;BME280;885;42.626;23.200;2023-04-29T11:24:52;109119.75;;;16.71;47.26
1776;BME280;885;42.626;23.200;2023-04-29T11:27:21;109384.19;;;16.83;46.78
1776;BME280;885;42.626;23.200;2023-04-29T11:29:50;109853.63;;;16.97;45.78
1776;BME280;885;42.626;23.200;2023-04-29T11:32:21;110500.31;;;17.07;45.79
1776;BME280;885;42.626;23.200;2023-04-29T11:34:48;111405.50;;;17.23;46.71
1776;BME280;885;42.626;23.200;2023-04-29T11:37:19;111230.91;;;17.24;46.32
1776;BME280;885;42.626;23.200;2023-04-29T11:39:46;111489.13;;;17.25;46.19
1776;BME280;885;42.626;23.200;2023-04-29T11:42:18;110822.19;;;17.12;46.74
1776;BME280;885;42.626;23.200;2023-04-29T11:44:45;109229.66;;;16.97;46.20
1776;BME280;885;42.626;23.200;2023-04-29T11:47:12;106685.00;;;16.51;46.18
1776;BME280;885;42.626;23.200;2023-04-29T11:49:40;107467.31;;;16.53;48.62
1776;BME280;885;42.626;23.200;2023-04-29T11:52:07;108242.06;;;16.50;48.33
1776;BME280;885;42.626;23.200;2023-04-29T11:54:34;107237.63;;;16.57;46.35
1776;BME280;885;42.626;23.200;2023-04-29T11:57:01;106777.66;;;16.63;46.85
1776;BME280;885;42.626;23.200;2023-04-29T11:59:30;106354.09;;;16.65;45.94
1776;BME280;885;42.626;23.200;2023-04-29T12:01:57;106385.63;;;16.61;46.56
1776;BME280;885;42.626;23.200;2023-04-29T12:04:24;105291.47;;;16.57;44.16
1776;BME280;885;42.626;23.200;2023-04-29T12:06:52;105050.69;;;16.51;46.08
1776;BME280;885;42.626;23.200;2023-04-29T12:09:22;104435.72;;;16.51;44.00
1776;BME280;885;42.626;23.200;2023-04-29T12:11:49;103271.09;;;16.37;43.72
1776;BME280;885;42.626;23.200;2023-04-29T12:14:16;102140.31;;;16.18;42.64
1776;BME280;885;42.626;23.200;2023-04-29T12:16:43;103076.00;;;16.41;44.05
1776;BME280;885;42.626;23.200;2023-04-29T12:19:10;103568.47;;;16.49;43.15
1776;BME280;885;42.626;23.200;2023-04-29T12:21:47;104412.00;;;16.57;45.22
1776;BME280;885;42.626;23.200;2023-04-29T12:24:15;103650.56;;;16.62;43.23
1776;BME280;885;42.626;23.200;2023-04-29T12:26:44;104476.41;;;16.81;43.49
1776;BME280;885;42.626;23.200;2023-04-29T12:29:12;105036.13;;;16.96;41.71
1776;BME280;885;42.626;23.200;2023-04-29T12:31:39;106184.53;;;17.10;42.23
1776;BME280;885;42.626;23.200;2023-04-29T12:34:06;106675.78;;;17.03;44.37
1776;BME280;885;42.626;23.200;2023-04-29T12:36:33;106744.00;;;16.99;44.92
1776;BME280;885;42.626;23.200;2023-04-29T12:39:04;106566.75;;;17.00;43.41
1776;BME280;885;42.626;23.200;2023-04-29T12:41:39;107050.00;;;16.99;44.59
1776;BME280;885;42.626;23.200;2023-04-29T12:44:07;107052.91;;;16.99;44.71
1776;BME280;885;42.626;23.200;2023-04-29T12:46:35;107361.81;;;16.99;45.14
1776;BME280;885;42.626;23.200;2023-04-29T12:49:02;107241.78;;;16.93;45.67
1776;BME280;885;42.626;23.200;2023-04-29T12:51:30;107840.03;;;16.85;47.64
1776;BME280;885;42.626;23.200;2023-04-29T12:53:58;106533.88;;;16.74;47.01
1776;BME280;885;42.626;23.200;2023-04-29T12:56:25;106423.97;;;16.62;47.66
1776;BME280;885;42.626;23.200;2023-04-29T12:58:53;106395.25;;;16.57;47.83
1776;BME280;885;42.626;23.200;2023-04-29T13:01:20;106120.72;;;16.55;47.20
1776;BME280;885;42.626;23.200;2023-04-29T13:03:46;105757.84;;;16.40;48.80
1776;BME280;885;42.626;23.200;2023-04-29T13:06:15;105176.03;;;16.33;49.00
1776;BME280;885;42.626;23.200;2023-04-29T13:08:42;105696.44;;;16.31;48.35
1776;BME280;885;42.626;23.200;2023-04-29T13:11:09;105937.25;;;16.28;50.30
1776;BME280;885;42.626;23.200;2023-04-29T13:13:37;107067.44;;;16.33;51.40
1776;BME280;885;42.626;23.200;2023-04-29T13:16:06;108218.56;;;16.32;52.36
1776;BME280;885;42.626;23.200;2023-04-29T13:18:33;106697.84;;;16.13;51.06
1776;BME280;885;42.626;23.200;2023-04-29T13:21:00;103812.94;;;15.92;50.40
1776;BME280;885;42.626;23.200;2023-04-29T13:23:27;102412.94;;;15.63;49.10
1776;BME280;885;42.626;23.200;2023-04-29T13:25:54;103375.00;;;15.70;51.04